Time;durP1;ratioP1;P1;durP2;ratioP2;P2;SDS_P1;SDS_P2;PMS_P1;PMS_P2;Temp;Humidity;BMP_temperature;BMP_pressure;BME280_temperature;BME280_humidity;BME280_pressure;Samples;Min_cycle;Max_cycle;Signal;HPM_P1;HPM_P2
2022/08/12 00:44:56;;;;;;;0.93;0.50;;;14.90;99.90;;;;;;4976424;28;20046;-73
2022/08/12 00:47:24;;;;;;;0.65;0.35;;;14.80;99.90;;;;;;4975479;28;20499;-72
2022/08/12 00:49:54;;;;;;;1.25;0.40;;;14.90;99.90;;;;;;4975276;28;20451;-72
2022/08/12 00:52:23;;;;;;;0.80;0.30;;;14.80;99.90;;;;;;4975385;28;20023;-72
2022/08/12 00:55:01;;;;;;;0.90;0.45;;;14.70;99.90;;;;;;4975469;28;20070;-72
2022/08/12 00:57:34;;;;;;;0.60;0.50;;;14.70;99.90;;;;;;4974238;28;20070;-73
2022/08/12 01:00:12;;;;;;;1.77;0.57;;;14.60;99.90;;;;;;4975385;28;20031;-72
2022/08/12 01:02:42;;;;;;;1.17;0.60;;;14.50;99.90;;;;;;4958985;28;20035;-71
2022/08/12 01:13:39;;;;;;;0.90;0.40;;;14.20;99.90;;;;;;4976667;28;20029;-72
2022/08/12 01:16:09;;;;;;;0.30;0.30;;;14.20;99.90;;;;;;4959400;28;20085;-72
2022/08/12 01:18:39;;;;;;;1.17;0.60;;;14.20;99.90;;;;;;4975044;28;20456;-73
2022/08/12 01:21:19;;;;;;;1.08;0.47;;;14.20;99.90;;;;;;4976087;28;20077;-72
2022/08/12 01:24:04;;;;;;;0.53;0.50;;;14.20;99.90;;;;;;4974689;28;20037;-72
2022/08/12 01:26:33;;;;;;;0.77;0.60;;;14.20;99.90;;;;;;4976301;28;20256;-73
2022/08/12 01:29:02;;;;;;;1.17;0.40;;;14.20;99.90;;;;;;4976014;28;20030;-72
2022/08/12 01:31:30;;;;;;;4.80;1.08;;;14.30;99.90;;;;;;4974886;28;20023;-72
2022/08/12 01:34:18;;;;;;;1.23;0.70;;;14.30;99.90;;;;;;4975810;28;20479;-71
2022/08/12 01:36:55;;;;;;;1.88;0.63;;;14.40;99.90;;;;;;4975756;28;20476;-71
2022/08/12 01:39:28;;;;;;;1.10;0.43;;;14.60;99.90;;;;;;4975943;28;20069;-72
2022/08/12 01:42:04;;;;;;;0.50;0.43;;;14.70;99.90;;;;;;4976128;28;20387;-72
2022/08/12 01:44:34;;;;;;;0.98;0.40;;;14.80;99.90;;;;;;4973928;28;20106;-72
2022/08/12 01:47:05;;;;;;;0.67;0.50;;;14.90;99.90;;;;;;4974412;28;20031;-72
2022/08/12 01:49:49;;;;;;;0.63;0.50;;;14.90;99.90;;;;;;4975794;28;20023;-72
2022/08/12 01:52:34;;;;;;;0.65;0.57;;;15.10;99.90;;;;;;4975652;28;20015;-73
2022/08/12 01:55:06;;;;;;;1.08;0.55;;;15.40;99.90;;;;;;4975493;28;20435;-72
2022/08/12 01:57:43;;;;;;;1.13;0.40;;;15.50;99.90;;;;;;4958542;28;20035;-72
2022/08/12 02:00:16;;;;;;;0.88;0.70;;;15.80;99.90;;;;;;4973889;28;20396;-72
2022/08/12 02:03:22;;;;;;;1.15;0.47;;;16.10;99.90;;;;;;4974067;28;20041;-72
2022/08/12 02:12:39;;;;;;;0.80;0.45;;;16.20;99.90;;;;;;4975460;28;20085;-71
2022/08/12 02:15:23;;;;;;;0.52;0.30;;;16.10;99.90;;;;;;4973736;28;20546;-71
2022/08/12 02:18:25;;;;;;;1.45;0.70;;;16.10;99.90;;;;;;4975182;28;20034;-73
2022/08/12 02:21:15;;;;;;;1.27;0.60;;;16.00;99.90;;;;;;4973659;28;20037;-72
2022/08/12 02:23:43;;;;;;;1.70;0.63;;;15.90;99.90;;;;;;4974755;28;20031;-73
2022/08/12 02:26:14;;;;;;;2.45;0.60;;;15.90;99.90;;;;;;4974922;28;20035;-73
2022/08/12 02:28:43;;;;;;;1.23;0.60;;;15.80;99.90;;;;;;4975496;28;20019;-73
2022/08/12 02:31:11;;;;;;;1.73;0.63;;;15.80;99.90;;;;;;4973588;28;20027;-73
2022/08/12 02:33:40;;;;;;;1.65;0.85;;;15.80;99.90;;;;;;4975019;28;20023;-72
2022/08/12 02:36:11;;;;;;;2.40;1.20;;;15.80;99.90;;;;;;4974738;28;20030;-72
2022/08/12 02:38:42;;;;;;;2.08;1.13;;;15.70;99.90;;;;;;4973628;28;20105;-72
2022/08/12 02:41:15;;;;;;;1.15;0.80;;;15.60;99.90;;;;;;4974597;28;20484;-72
2022/08/12 02:43:54;;;;;;;4.15;0.80;;;15.70;99.90;;;;;;4974748;28;20081;-72
2022/08/12 02:46:33;;;;;;;2.40;1.00;;;15.60;99.90;;;;;;4974415;28;20494;-72
2022/08/12 02:49:25;;;;;;;2.10;0.73;;;15.70;99.90;;;;;;4973626;28;20023;-72
2022/08/12 02:51:53;;;;;;;2.75;0.80;;;15.80;99.90;;;;;;4973097;28;20510;-73
2022/08/12 02:54:22;;;;;;;1.10;0.70;;;15.80;99.90;;;;;;4973366;28;20023;-74
2022/08/12 02:56:50;;;;;;;1.25;0.90;;;15.90;99.90;;;;;;4974333;28;20026;-73
2022/08/12 02:59:21;;;;;;;2.05;0.85;;;16.00;99.90;;;;;;4974403;28;20022;-74
2022/08/12 03:01:52;;;;;;;3.13;1.08;;;16.10;99.90;;;;;;4973002;28;20042;-73
2022/08/12 03:04:35;;;;;;;3.08;0.80;;;16.20;99.90;;;;;;4972859;28;20043;-71
2022/08/12 03:07:37;;;;;;;2.15;1.17;;;16.30;99.90;;;;;;4974552;28;20423;-71
2022/08/12 03:10:10;;;;;;;1.92;0.80;;;16.30;99.90;;;;;;4956883;28;20031;-72
2022/08/12 03:12:46;;;;;;;1.50;0.95;;;16.70;99.90;;;;;;4973004;28;20062;-72
2022/08/12 03:15:16;;;;;;;2.60;1.30;;;17.10;99.90;;;;;;4973589;28;20380;-73
2022/08/12 03:17:44;;;;;;;2.33;1.10;;;17.30;99.90;;;;;;4972821;28;20065;-72
2022/08/12 03:20:19;;;;;;;1.65;0.98;;;17.40;99.90;;;;;;4973557;28;20043;-73
2022/08/12 03:22:50;;;;;;;1.88;0.90;;;17.50;99.90;;;;;;4972725;28;20031;-74
2022/08/12 03:25:26;;;;;;;1.38;0.70;;;17.40;99.90;;;;;;4957849;28;20033;-75
2022/08/12 03:27:58;;;;;;;1.92;0.95;;;17.20;99.90;;;;;;4972654;28;20038;-74
2022/08/12 03:30:31;;;;;;;2.28;1.20;;;17.00;99.90;;;;;;4974722;28;20034;-73
2022/08/12 03:33:01;;;;;;;2.05;0.80;;;16.90;99.90;;;;;;4973967;28;20055;-73
2022/08/12 03:35:32;;;;;;;1.83;0.88;;;16.70;99.90;;;;;;4972730;28;20031;-73
2022/08/12 03:38:03;;;;;;;3.17;1.42;;;16.60;99.90;;;;;;4974004;28;20438;-74
2022/08/12 04:00:24;;;;;;;2.05;1.00;;;16.00;99.90;;;;;;4974226;28;20510;-75
2022/08/12 04:03:04;;;;;;;1.92;0.85;;;16.00;99.90;;;;;;4972708;28;20042;-75
2022/08/12 04:05:33;;;;;;;2.75;1.10;;;16.10;99.90;;;;;;4972498;28;20027;-74
2022/08/12 04:08:00;;;;;;;1.40;1.00;;;16.00;99.90;;;;;;4956813;28;20395;-73
2022/08/12 04:13:22;;;;;;;1.92;1.00;;;15.90;99.90;;;;;;4974048;28;20077;-73
2022/08/12 04:15:50;;;;;;;2.10;0.90;;;15.80;99.90;;;;;;4973852;28;20042;-72
2022/08/12 04:18:18;;;;;;;2.67;0.93;;;15.80;99.90;;;;;;4972291;28;20035;-72
2022/08/12 04:20:47;;;;;;;4.22;1.08;;;15.80;99.90;;;;;;4972344;28;20031;-71
2022/08/12 04:23:15;;;;;;;1.55;0.80;;;15.80;99.90;;;;;;4973575;28;20023;-72
2022/08/12 04:25:43;;;;;;;1.73;0.85;;;15.60;99.90;;;;;;4973560;28;20019;-72
2022/08/12 04:28:11;;;;;;;1.30;0.68;;;15.60;99.90;;;;;;4972118;28;20023;-72
2022/08/12 04:30:39;;;;;;;2.65;1.10;;;15.50;99.90;;;;;;4972160;28;20435;-71
2022/08/12 04:33:11;;;;;;;2.35;0.88;;;15.60;99.90;;;;;;4973870;28;20031;-72
2022/08/12 04:35:39;;;;;;;1.30;0.80;;;15.50;99.90;;;;;;4975666;28;20027;-72
2022/08/12 04:38:06;;;;;;;1.58;0.65;;;15.50;99.90;;;;;;4975506;28;20031;-72
2022/08/12 04:40:37;;;;;;;0.75;0.40;;;15.40;99.90;;;;;;4975454;28;20054;-72
2022/08/12 04:43:13;;;;;;;0.80;0.60;;;15.40;99.90;;;;;;4976975;28;20034;-72
2022/08/12 04:45:42;;;;;;;1.90;0.80;;;15.30;99.90;;;;;;4975011;28;20042;-72
2022/08/12 04:48:09;;;;;;;1.35;0.63;;;15.30;99.90;;;;;;4975406;28;20023;-72
2022/08/12 04:50:37;;;;;;;1.55;0.80;;;15.30;99.90;;;;;;4975325;28;20045;-72
2022/08/12 04:53:06;;;;;;;1.92;0.70;;;15.30;99.90;;;;;;4976533;28;20019;-72
2022/08/12 04:55:33;;;;;;;1.42;0.60;;;15.20;99.90;;;;;;4975181;28;20031;-72
2022/08/12 04:58:01;;;;;;;1.95;0.60;;;15.30;99.90;;;;;;4975004;28;20093;-72
2022/08/12 05:00:28;;;;;;;0.95;0.63;;;15.20;99.90;;;;;;4975178;28;20031;-71
2022/08/12 05:02:56;;;;;;;1.50;0.70;;;15.20;99.90;;;;;;4976623;28;20348;-71
2022/08/12 05:05:24;;;;;;;1.88;0.60;;;15.20;99.90;;;;;;4976421;28;20031;-72
2022/08/12 05:07:52;;;;;;;1.60;0.65;;;15.30;99.90;;;;;;4975166;28;20022;-71
2022/08/12 05:10:21;;;;;;;1.48;0.57;;;15.20;99.90;;;;;;4976516;28;20102;-72
2022/08/12 05:12:55;;;;;;;2.35;0.68;;;15.10;99.90;;;;;;4974982;28;20184;-72
2022/08/12 05:15:22;;;;;;;1.17;0.80;;;15.10;99.90;;;;;;4974989;28;20098;-72
2022/08/12 05:17:50;;;;;;;1.48;0.60;;;15.00;99.90;;;;;;4976377;28;20047;-72
2022/08/12 05:20:21;;;;;;;0.98;0.57;;;15.00;99.90;;;;;;4976004;28;20023;-74
2022/08/12 05:22:49;;;;;;;1.15;0.40;;;15.00;99.90;;;;;;4959538;28;20455;-71
2022/08/12 05:25:18;;;;;;;0.57;0.28;;;15.00;99.90;;;;;;4975943;28;20110;-71
2022/08/12 05:27:45;;;;;;;1.65;0.73;;;15.00;99.90;;;;;;4974555;28;20054;-70
2022/08/12 05:30:13;;;;;;;1.25;0.50;;;14.90;99.90;;;;;;4975711;28;20045;-71
2022/08/12 05:32:40;;;;;;;0.88;0.40;;;14.90;99.90;;;;;;4974384;28;20023;-71
2022/08/12 05:35:09;;;;;;;0.85;0.40;;;14.90;99.90;;;;;;4975879;28;20373;-71
2022/08/12 05:37:37;;;;;;;1.45;0.70;;;14.90;99.90;;;;;;4975685;28;20376;-70
2022/08/12 05:40:05;;;;;;;0.65;0.47;;;15.00;99.90;;;;;;4958429;28;20031;-72
2022/08/12 05:42:32;;;;;;;2.55;0.73;;;15.00;99.90;;;;;;4975437;28;20114;-72
2022/08/12 05:45:00;;;;;;;2.10;0.52;;;15.00;99.90;;;;;;4974938;28;20039;-71
2022/08/12 05:47:27;;;;;;;1.48;0.52;;;15.00;99.90;;;;;;4974418;28;20019;-70
2022/08/12 05:49:55;;;;;;;1.83;0.50;;;15.00;99.90;;;;;;4974225;28;20027;-72
2022/08/12 05:52:22;;;;;;;0.70;0.60;;;15.00;99.90;;;;;;4975347;28;20475;-71
2022/08/12 05:54:50;;;;;;;1.25;0.60;;;14.90;99.90;;;;;;4975353;28;20101;-72
2022/08/12 05:57:17;;;;;;;1.27;0.60;;;14.80;99.90;;;;;;4974141;28;20031;-73
2022/08/12 05:59:45;;;;;;;1.45;0.50;;;14.80;99.90;;;;;;4974141;28;20495;-72
2022/08/12 06:02:13;;;;;;;0.80;0.60;;;14.80;99.90;;;;;;4973979;28;20062;-72
2022/08/12 06:04:40;;;;;;;1.98;0.95;;;14.80;99.90;;;;;;4975566;28;20118;-74
2022/08/12 06:07:11;;;;;;;1.90;0.60;;;14.70;99.90;;;;;;4975272;28;20031;-73
2022/08/12 06:09:38;;;;;;;1.38;0.60;;;14.70;99.90;;;;;;4974088;28;20483;-75
2022/08/12 06:12:06;;;;;;;1.70;0.82;;;14.70;99.90;;;;;;4974004;28;20093;-75
2022/08/12 06:14:37;;;;;;;2.10;0.70;;;14.70;99.90;;;;;;4975148;28;20045;-74
2022/08/12 06:17:08;;;;;;;2.03;0.98;;;14.70;99.90;;;;;;4974111;28;20438;-76
2022/08/12 06:19:35;;;;;;;2.90;0.80;;;14.60;99.90;;;;;;4974011;28;20027;-76
2022/08/12 06:22:02;;;;;;;1.40;0.70;;;14.70;99.90;;;;;;4975130;28;20026;-76
2022/08/12 06:24:32;;;;;;;1.48;0.90;;;14.70;99.90;;;;;;4974883;28;20033;-74
2022/08/12 06:26:59;;;;;;;1.92;0.85;;;14.60;99.90;;;;;;4957826;28;20061;-72
2022/08/12 06:29:27;;;;;;;1.27;0.90;;;14.60;99.90;;;;;;4974994;28;20502;-73
2022/08/12 06:31:54;;;;;;;3.88;1.27;;;14.60;99.90;;;;;;4973914;28;20023;-73
2022/08/12 06:34:21;;;;;;;1.10;0.88;;;14.50;99.90;;;;;;4975035;28;20110;-73
2022/08/12 06:36:49;;;;;;;2.33;1.40;;;14.50;99.90;;;;;;4973337;28;20122;-74
2022/08/12 06:39:16;;;;;;;1.80;1.20;;;14.50;99.90;;;;;;4974879;28;20079;-73
2022/08/12 06:44:28;;;;;;;2.13;1.50;;;14.40;99.90;;;;;;4974930;28;20085;-75
2022/08/12 06:46:56;;;;;;;1.92;1.27;;;14.40;99.90;;;;;;4973500;28;20026;-75
2022/08/12 06:49:24;;;;;;;1.80;1.40;;;14.40;99.90;;;;;;4973814;28;20031;-75
2022/08/12 06:51:54;;;;;;;2.08;1.10;;;14.30;99.90;;;;;;4973327;28;20029;-76
2022/08/12 06:54:23;;;;;;;1.63;1.40;;;14.20;99.90;;;;;;4973231;28;20165;-75
2022/08/12 06:56:51;;;;;;;2.85;1.58;;;14.20;99.90;;;;;;4974385;28;20034;-75
2022/08/12 06:59:20;;;;;;;2.10;1.45;;;14.20;99.90;;;;;;4973320;28;20173;-75
2022/08/12 07:01:47;;;;;;;1.67;1.30;;;14.20;99.90;;;;;;4973145;28;20046;-75
2022/08/12 07:04:15;;;;;;;2.28;1.67;;;14.20;99.90;;;;;;4973118;28;20027;-75
2022/08/12 07:06:44;;;;;;;2.20;1.70;;;14.10;99.90;;;;;;4973213;28;20077;-75
2022/08/12 07:09:13;;;;;;;2.28;1.60;;;14.10;99.90;;;;;;4974923;28;20086;-75
2022/08/12 07:11:42;;;;;;;1.85;1.58;;;14.00;99.90;;;;;;4974491;28;20444;-76
2022/08/12 07:14:09;;;;;;;1.95;1.75;;;14.00;99.90;;;;;;4974566;28;20082;-76
2022/08/12 07:16:52;;;;;;;2.30;1.92;;;13.90;99.90;;;;;;4974728;28;20027;-75
2022/08/12 07:19:20;;;;;;;2.47;1.92;;;13.90;99.90;;;;;;4973253;28;20026;-74
2022/08/12 07:21:48;;;;;;;2.72;1.80;;;13.90;99.90;;;;;;4974322;28;20456;-74
2022/08/12 07:24:15;;;;;;;3.55;2.40;;;13.90;99.90;;;;;;4972984;28;20023;-75
2022/08/12 07:26:43;;;;;;;3.42;1.90;;;13.90;99.90;;;;;;4973197;28;20097;-74
2022/08/12 07:29:13;;;;;;;2.90;2.22;;;13.80;99.90;;;;;;4974521;28;20026;-74
2022/08/12 07:31:41;;;;;;;3.00;2.08;;;13.70;99.90;;;;;;4973339;28;20517;-74
2022/08/12 07:34:09;;;;;;;2.33;1.90;;;13.70;99.90;;;;;;4973609;28;20046;-76
2022/08/12 07:36:36;;;;;;;4.70;2.20;;;13.70;99.90;;;;;;4973133;28;20031;-76
2022/08/12 07:39:04;;;;;;;3.20;2.00;;;13.60;99.90;;;;;;4972980;28;20081;-74
2022/08/12 07:41:32;;;;;;;3.47;2.55;;;13.70;99.90;;;;;;4972869;28;20348;-74
2022/08/12 07:44:07;;;;;;;2.97;2.47;;;13.60;99.90;;;;;;4972893;28;20023;-75
2022/08/12 07:46:42;;;;;;;2.58;2.17;;;13.60;99.90;;;;;;4972792;28;20133;-75
2022/08/12 07:49:12;;;;;;;2.30;2.10;;;13.60;99.90;;;;;;4973163;28;20023;-75
2022/08/12 07:51:41;;;;;;;2.58;2.33;;;13.60;99.90;;;;;;4972812;28;20023;-75
2022/08/12 07:54:11;;;;;;;3.67;2.53;;;13.60;99.90;;;;;;4972853;28;20027;-74
2022/08/12 07:56:42;;;;;;;3.25;2.17;;;13.60;99.90;;;;;;4972997;28;20046;-74
2022/08/12 07:59:10;;;;;;;2.80;2.22;;;13.50;99.90;;;;;;4972861;28;20035;-75
2022/08/12 08:01:38;;;;;;;3.45;2.63;;;13.50;99.90;;;;;;4974013;28;20030;-74
2022/08/12 08:06:52;;;;;;;3.10;2.20;;;13.50;99.90;;;;;;4975574;28;20037;-74
2022/08/12 08:09:22;;;;;;;2.35;2.00;;;13.50;99.90;;;;;;4976730;28;20105;-74
2022/08/12 08:14:36;;;;;;;4.03;2.40;;;13.40;99.90;;;;;;4977614;28;20768;-74
2022/08/12 08:17:05;;;;;;;3.63;2.60;;;13.40;99.90;;;;;;4976326;28;20026;-74
2022/08/12 08:19:37;;;;;;;3.67;2.58;;;13.30;99.90;;;;;;4977537;28;20030;-74
2022/08/12 08:22:05;;;;;;;3.75;2.80;;;13.30;99.90;;;;;;4977735;28;20022;-73
2022/08/12 08:24:33;;;;;;;3.20;2.50;;;13.20;99.90;;;;;;4977365;28;20031;-74
2022/08/12 08:27:01;;;;;;;3.50;2.20;;;13.30;99.90;;;;;;4976043;28;20045;-74
2022/08/12 08:29:31;;;;;;;2.90;2.70;;;13.30;99.90;;;;;;4975700;28;20476;-74
2022/08/12 08:32:00;;;;;;;;;;;13.20;99.90;;;;;;4976875;28;20526;-75
2022/08/12 08:34:32;;;;;;;2.90;2.60;;;13.30;99.90;;;;;;4977319;28;19906;-74
2022/08/12 08:36:59;;;;;;;4.22;3.40;;;13.30;99.90;;;;;;4976112;28;20391;-75
2022/08/12 08:39:27;;;;;;;3.95;3.15;;;13.20;99.90;;;;;;4975897;28;20023;-73
2022/08/12 08:44:40;;;;;;;3.13;2.83;;;13.30;99.90;;;;;;4977082;28;20071;-74
2022/08/12 08:47:10;;;;;;;5.20;3.00;;;13.30;99.90;;;;;;4977155;28;20027;-75
2022/08/12 08:49:39;;;;;;;6.13;3.38;;;13.30;99.90;;;;;;4975747;28;20483;-75
2022/08/12 08:52:08;;;;;;;3.80;3.05;;;13.30;99.90;;;;;;4976982;28;20407;-75
2022/08/12 08:54:39;;;;;;;4.55;3.28;;;13.30;99.90;;;;;;4975524;28;20054;-71
2022/08/12 08:57:07;;;;;;;3.30;3.00;;;13.30;99.90;;;;;;4975208;28;20038;-70
2022/08/12 08:59:36;;;;;;;3.17;2.60;;;13.30;99.90;;;;;;4975205;28;20031;-71
2022/08/12 09:02:04;;;;;;;6.60;3.40;;;13.30;99.90;;;;;;4959293;28;20060;-71
2022/08/12 09:04:31;;;;;;;4.70;4.00;;;13.30;99.90;;;;;;4975121;28;20373;-72
2022/08/12 09:06:59;;;;;;;5.25;3.50;;;13.20;99.90;;;;;;4975138;28;20034;-71
2022/08/12 09:09:27;;;;;;;3.50;3.10;;;13.20;99.90;;;;;;4976934;28;20147;-70
2022/08/12 09:14:42;;;;;;;4.03;3.05;;;13.20;99.90;;;;;;4976288;28;20038;-70
2022/08/12 09:17:12;;;;;;;3.80;3.40;;;13.30;99.90;;;;;;4976383;28;20025;-71
2022/08/12 09:19:40;;;;;;;4.00;3.60;;;13.30;99.90;;;;;;4958691;28;20554;-72
2022/08/12 09:22:08;;;;;;;5.10;4.03;;;13.30;99.90;;;;;;4976145;28;20447;-72
2022/08/12 09:24:36;;;;;;;6.05;3.90;;;13.30;99.90;;;;;;4958765;28;20034;-71
2022/08/12 09:27:05;;;;;;;5.43;3.95;;;13.30;99.90;;;;;;4976034;28;20103;-71
2022/08/12 09:29:33;;;;;;;4.25;3.78;;;13.30;99.90;;;;;;4974640;28;20050;-70
2022/08/12 09:32:00;;;;;;;3.85;3.53;;;13.30;99.90;;;;;;4974867;28;20514;-72
2022/08/12 09:34:28;;;;;;;4.53;3.05;;;13.30;99.90;;;;;;4974774;28;20104;-72
2022/08/12 09:36:56;;;;;;;3.78;2.97;;;13.30;99.90;;;;;;4976284;28;20117;-70
2022/08/12 09:39:24;;;;;;;3.95;2.97;;;13.30;99.90;;;;;;4974437;28;20066;-69
2022/08/12 09:45:21;;;;;;;3.42;3.05;;;13.30;99.90;;;;;;4974551;28;20035;-73
2022/08/12 09:47:27;;;;;;;5.32;4.78;;;13.40;99.90;;;;;;4974830;28;20041;-71
2022/08/12 09:49:55;;;;;;;3.50;3.20;;;13.30;99.90;;;;;;4975900;28;20085;-70
2022/08/12 09:52:23;;;;;;;3.15;2.72;;;13.40;99.90;;;;;;4974209;28;20030;-71
2022/08/12 09:54:51;;;;;;;3.90;2.72;;;13.30;99.90;;;;;;4974268;28;20205;-72
2022/08/12 09:57:19;;;;;;;3.95;2.75;;;13.30;99.90;;;;;;4974280;28;20070;-71
2022/08/12 09:59:47;;;;;;;3.58;2.80;;;13.30;99.90;;;;;;4974024;28;20027;-71
2022/08/12 10:02:15;;;;;;;3.38;3.03;;;13.30;99.90;;;;;;4975353;28;20022;-70
2022/08/12 10:04:47;;;;;;;3.40;3.05;;;13.30;99.90;;;;;;4973867;28;20030;-71
2022/08/12 10:07:15;;;;;;;3.28;2.97;;;13.30;99.90;;;;;;4973970;28;20023;-72
2022/08/12 10:09:43;;;;;;;5.63;3.47;;;13.30;99.90;;;;;;4974664;28;20027;-71
2022/08/12 10:14:55;;;;;;;4.90;3.60;;;13.40;99.90;;;;;;4975566;28;20049;-71
2022/08/12 10:17:23;;;;;;;4.15;3.00;;;13.40;99.90;;;;;;4975056;28;20188;-71
2022/08/12 10:19:52;;;;;;;3.55;3.15;;;13.40;99.90;;;;;;4974952;28;20368;-71
2022/08/12 10:22:20;;;;;;;4.53;3.60;;;13.30;99.90;;;;;;4975144;28;20416;-72
2022/08/12 10:29:35;;;;;;;4.28;3.88;;;13.30;99.90;;;;;;4974782;28;20019;-71
2022/08/12 10:30:20;;;;;;;4.00;3.60;;;13.40;99.90;;;;;;4974705;28;20514;-71
2022/08/12 10:32:58;;;;;;;5.97;3.30;;;13.30;99.90;;;;;;4973496;28;20029;-70
2022/08/12 10:35:30;;;;;;;4.80;3.90;;;13.30;99.90;;;;;;4973428;28;20090;-72
2022/08/12 10:38:01;;;;;;;5.15;4.07;;;13.30;99.90;;;;;;4974738;28;20055;-71
2022/08/12 10:40:30;;;;;;;4.30;3.30;;;13.20;99.90;;;;;;4942201;28;20125;-71
2022/08/12 10:45:55;;;;;;;3.55;3.25;;;13.20;99.90;;;;;;4951447;28;20582;-71
2022/08/12 10:48:22;;;;;;;3.67;3.38;;;13.20;99.90;;;;;;4974603;28;20023;-72
2022/08/12 10:50:56;;;;;;;3.63;3.05;;;13.10;99.90;;;;;;4974387;28;20031;-71
2022/08/12 10:53:23;;;;;;;4.20;3.10;;;13.10;99.90;;;;;;4974710;28;20026;-71
2022/08/12 10:55:53;;;;;;;4.35;3.42;;;13.20;99.90;;;;;;4973146;28;20435;-71
2022/08/12 10:58:21;;;;;;;4.22;3.22;;;13.10;99.90;;;;;;4973569;28;20426;-71
2022/08/12 11:00:48;;;;;;;3.25;2.95;;;13.10;99.90;;;;;;4973220;28;20027;-71
2022/08/12 11:03:17;;;;;;;3.47;3.17;;;13.10;99.90;;;;;;4972993;28;20399;-71
2022/08/12 11:05:44;;;;;;;3.97;3.15;;;13.10;99.90;;;;;;4972970;28;20034;-71
2022/08/12 11:08:16;;;;;;;4.13;3.00;;;13.00;99.90;;;;;;4974140;28;20487;-71
2022/08/12 11:10:44;;;;;;;3.78;3.00;;;13.00;99.90;;;;;;4972762;28;20038;-72
2022/08/12 11:13:11;;;;;;;3.47;3.17;;;13.00;99.90;;;;;;4973093;28;20055;-71
2022/08/12 11:15:39;;;;;;;3.42;3.13;;;13.00;99.90;;;;;;4956924;28;20093;-71
2022/08/12 11:18:07;;;;;;;3.80;3.30;;;13.00;99.90;;;;;;4973042;28;20455;-71
2022/08/12 11:20:34;;;;;;;4.07;3.28;;;13.00;99.90;;;;;;4972773;28;20152;-69
2022/08/12 11:23:02;;;;;;;3.88;3.30;;;13.00;99.90;;;;;;4974320;28;20502;-72
2022/08/12 11:25:29;;;;;;;3.60;3.30;;;13.00;99.90;;;;;;4974032;28;20019;-70
2022/08/12 11:27:56;;;;;;;4.15;3.40;;;13.00;99.90;;;;;;4973994;28;20019;-73
2022/08/12 11:30:24;;;;;;;4.03;3.63;;;13.00;99.90;;;;;;4972699;28;20120;-71
2022/08/12 11:32:51;;;;;;;3.72;3.42;;;13.00;99.90;;;;;;4974009;28;20066;-71
2022/08/12 11:35:19;;;;;;;4.70;4.07;;;13.00;99.90;;;;;;4974025;28;20030;-71
2022/08/12 11:37:47;;;;;;;4.05;3.53;;;13.00;99.90;;;;;;4972601;28;20029;-72
2022/08/12 11:40:14;;;;;;;4.38;3.10;;;13.00;99.90;;;;;;4972707;28;20524;-74
2022/08/12 11:42:42;;;;;;;4.18;3.40;;;13.00;99.90;;;;;;4975646;28;20114;-70
2022/08/12 11:45:10;;;;;;;4.90;3.88;;;13.00;99.90;;;;;;4977708;28;20035;-71
2022/08/12 11:47:37;;;;;;;4.78;4.38;;;13.00;99.90;;;;;;4977777;28;20105;-70
2022/08/12 11:50:06;;;;;;;5.28;3.95;;;13.00;99.90;;;;;;4976446;28;20019;-71
2022/08/12 11:52:34;;;;;;;4.85;4.28;;;13.00;99.90;;;;;;4976502;28;20031;-70
2022/08/12 11:55:01;;;;;;;4.60;4.20;;;13.00;99.90;;;;;;4977818;28;20023;-71
2022/08/12 11:57:30;;;;;;;4.90;4.43;;;13.00;99.90;;;;;;4976307;28;20058;-73
2022/08/12 11:59:57;;;;;;;4.25;3.70;;;13.00;99.90;;;;;;4977299;28;20110;-71
2022/08/12 12:02:25;;;;;;;5.25;4.38;;;13.00;99.90;;;;;;4977593;28;20468;-71
2022/08/12 12:04:52;;;;;;;4.90;4.50;;;13.00;99.90;;;;;;4977513;28;20034;-71
2022/08/12 12:07:23;;;;;;;5.15;4.65;;;13.00;99.90;;;;;;4976162;28;20023;-72
2022/08/12 12:09:50;;;;;;;4.80;4.38;;;13.00;99.90;;;;;;4960627;28;20089;-71
2022/08/12 12:12:17;;;;;;;6.43;5.15;;;12.90;99.90;;;;;;4976127;28;20038;-73
2022/08/12 12:14:45;;;;;;;5.43;4.65;;;13.00;99.90;;;;;;4976024;28;20053;-73
2022/08/12 12:17:13;;;;;;;5.50;4.90;;;12.90;99.90;;;;;;4977569;28;20027;-73
2022/08/12 12:19:43;;;;;;;5.00;4.60;;;12.90;99.90;;;;;;4976013;28;20118;-72
2022/08/12 12:22:10;;;;;;;5.68;5.22;;;12.90;99.90;;;;;;4975986;28;20027;-72
2022/08/12 12:24:39;;;;;;;5.60;5.07;;;12.90;99.90;;;;;;4977164;28;20023;-73
2022/08/12 12:27:07;;;;;;;5.28;4.88;;;12.80;99.90;;;;;;4977109;28;20385;-72
2022/08/12 12:29:35;;;;;;;5.30;4.80;;;12.80;99.90;;;;;;4975913;28;20034;-74
2022/08/12 12:32:02;;;;;;;5.68;5.28;;;12.80;99.90;;;;;;4977137;28;20030;-72
2022/08/12 12:34:29;;;;;;;6.10;5.55;;;12.80;99.90;;;;;;4975726;28;20452;-72
2022/08/12 12:36:57;;;;;;;5.85;5.25;;;12.80;99.90;;;;;;4977065;28;20210;-71
2022/08/12 12:39:24;;;;;;;5.55;5.13;;;12.80;99.90;;;;;;4975499;28;20039;-71
2022/08/12 12:41:52;;;;;;;7.90;5.35;;;12.80;99.90;;;;;;4976900;28;20027;-72
2022/08/12 12:44:20;;;;;;;5.65;5.07;;;12.80;99.90;;;;;;4975196;28;20027;-71
2022/08/12 12:46:47;;;;;;;5.72;5.18;;;12.80;99.90;;;;;;4976766;28;20046;-72
2022/08/12 12:49:15;;;;;;;5.18;4.75;;;12.70;99.90;;;;;;4977304;28;20510;-72
2022/08/12 12:51:42;;;;;;;5.60;5.10;;;12.70;99.90;;;;;;4975300;28;20050;-72
2022/08/12 12:54:09;;;;;;;5.03;4.63;;;12.70;99.90;;;;;;4974122;28;20065;-71
2022/08/12 12:56:41;;;;;;;5.50;4.43;;;12.70;99.90;;;;;;4976863;28;20027;-71
2022/08/12 12:59:09;;;;;;;5.10;4.63;;;12.60;99.90;;;;;;4976983;28;20026;-71
2022/08/12 13:01:38;;;;;;;5.55;4.97;;;12.60;99.90;;;;;;4960018;28;20038;-71
2022/08/12 13:04:07;;;;;;;5.47;4.97;;;12.60;99.90;;;;;;4976509;28;20550;-72
2022/08/12 13:06:35;;;;;;;5.60;5.13;;;12.60;99.90;;;;;;4975089;28;20038;-72
2022/08/12 13:09:03;;;;;;;6.30;5.65;;;12.50;99.90;;;;;;4975196;28;20133;-72
2022/08/12 13:11:34;;;;;;;6.07;5.57;;;12.50;99.90;;;;;;4975211;28;20388;-72
2022/08/12 13:14:05;;;;;;;5.90;5.40;;;12.50;99.90;;;;;;4976385;28;20388;-72
2022/08/12 13:16:32;;;;;;;6.47;5.97;;;12.40;99.90;;;;;;4976399;28;20022;-71
2022/08/12 13:18:59;;;;;;;6.93;6.32;;;12.40;99.90;;;;;;4976390;28;20023;-72
2022/08/12 13:21:29;;;;;;;7.25;6.55;;;12.40;99.90;;;;;;4976406;28;20023;-72
2022/08/12 13:23:58;;;;;;;6.50;5.90;;;12.40;99.90;;;;;;4974899;28;20476;-71
2022/08/12 13:26:33;;;;;;;6.57;5.97;;;12.40;99.90;;;;;;4976215;28;20022;-71
2022/08/12 13:29:01;;;;;;;6.55;6.05;;;12.40;99.90;;;;;;4974846;28;20022;-74
2022/08/12 13:31:28;;;;;;;7.20;6.60;;;12.50;99.90;;;;;;4976012;28;20022;-72
2022/08/12 13:33:55;;;;;;;7.20;6.43;;;12.50;99.90;;;;;;4974638;28;20391;-73
2022/08/12 13:36:23;;;;;;;7.38;6.78;;;12.50;99.90;;;;;;4974732;28;20058;-72
2022/08/12 13:38:50;;;;;;;6.45;5.95;;;12.50;99.90;;;;;;4974638;28;20399;-72
2022/08/12 13:41:31;;;;;;;6.30;5.80;;;12.50;99.90;;;;;;4974554;28;20037;-72
2022/08/12 13:44:07;;;;;;;6.30;5.70;;;12.50;99.90;;;;;;4974497;28;20377;-73
2022/08/12 13:46:37;;;;;;;6.82;5.68;;;12.50;99.90;;;;;;4975564;28;20448;-71
2022/08/12 13:49:06;;;;;;;5.50;5.10;;;12.50;99.90;;;;;;4942909;28;20023;-72
2022/08/12 13:51:34;;;;;;;6.18;5.57;;;12.50;99.90;;;;;;4976114;28;20027;-72
2022/08/12 13:54:03;;;;;;;5.63;5.18;;;12.50;99.90;;;;;;4974132;28;20368;-71
2022/08/12 13:56:34;;;;;;;6.53;5.93;;;12.50;99.90;;;;;;4975623;28;20030;-71
2022/08/12 13:59:08;;;;;;;6.97;5.88;;;12.50;99.90;;;;;;4975947;28;20081;-71
2022/08/12 14:01:37;;;;;;;5.70;5.20;;;12.50;99.90;;;;;;4975627;28;20026;-72
2022/08/12 14:04:05;;;;;;;7.75;5.32;;;12.50;99.90;;;;;;4973674;28;20061;-73
2022/08/12 14:06:32;;;;;;;5.35;4.95;;;12.60;99.90;;;;;;4974571;28;20058;-71
2022/08/12 14:09:00;;;;;;;6.30;5.70;;;12.60;99.90;;;;;;4973944;28;20109;-72
2022/08/12 14:11:28;;;;;;;5.70;5.03;;;12.60;99.90;;;;;;4973896;28;20026;-72
2022/08/12 14:13:58;;;;;;;5.47;5.03;;;12.60;99.90;;;;;;4974027;28;20547;-72
2022/08/12 14:16:28;;;;;;;5.75;5.13;;;12.60;99.90;;;;;;4975544;28;20158;-72
2022/08/12 14:18:56;;;;;;;4.88;4.47;;;12.60;99.90;;;;;;4975371;28;20054;-73
2022/08/12 14:21:28;;;;;;;5.05;4.65;;;12.60;99.90;;;;;;4973792;28;20039;-71
2022/08/12 14:23:56;;;;;;;5.28;4.88;;;12.60;99.90;;;;;;4975428;28;20190;-72
2022/08/12 14:26:26;;;;;;;4.82;4.43;;;12.70;99.90;;;;;;4973669;28;20419;-71
2022/08/12 14:28:54;;;;;;;4.95;4.50;;;12.70;99.90;;;;;;4973698;28;20030;-72
2022/08/12 14:31:26;;;;;;;4.88;4.47;;;12.70;99.90;;;;;;4974778;28;20030;-71
2022/08/12 14:33:53;;;;;;;5.18;4.43;;;12.70;99.90;;;;;;4974809;28;20027;-72
2022/08/12 14:36:24;;;;;;;5.57;4.60;;;12.70;99.90;;;;;;4973383;28;20022;-71
2022/08/12 14:38:54;;;;;;;4.85;4.45;;;12.70;99.90;;;;;;4973466;28;20034;-72
2022/08/12 14:41:25;;;;;;;4.53;4.20;;;12.60;99.90;;;;;;4973400;28;20114;-72
2022/08/12 14:43:53;;;;;;;4.10;3.80;;;12.60;99.90;;;;;;4973497;28;20049;-71
2022/08/12 14:46:23;;;;;;;4.43;4.03;;;12.60;99.90;;;;;;4974338;28;20038;-72
2022/08/12 14:48:53;;;;;;;4.72;4.28;;;12.60;99.90;;;;;;4974843;28;20475;-71